Aérodrome :
LOGIN :

S'inscrire | Disclaimer

   EN    FR    IT 

 










Légende :    VFR   VFR Marginal   IFR   IFR Intensif   IFR Très Intensif
Visi : 
Plafond : 
>= 8 km
>= 3000ft
5 à 8 km
1000 à 3000 ft
1500m à 5 km
500 à 1000 ft
800 à 1500m
200 à 500 ft
< 800m
< 200 ft
Symboles :   Orages  Brouillard  Fortes neiges  Fortes précipitations  Vent > 20 kt
SIGMETs :   Divers  Orages  Givrage  Turbulence  Onde Orograph.  Cendres Volcan.







- Altitude de l'aérodrome : 19 ft
- Code IATA : SMI


LGSM - Aristarchos of Samos

DERNIER METAR :
  • 191550Z 16006KT 9999 FEW025 28/19 Q1009

METARs EXPIRÉS :
  • 191520Z 17006KT 9999 FEW025 28/19 Q1009
  • 191450Z 16008KT 9999 FEW025 28/19 Q1009
  • 191420Z 15008KT 9999 FEW025 28/19 Q1009
  • 191350Z 16008KT 9999 FEW025 28/19 Q1009
  • 191320Z 17007KT 9999 FEW025 28/19 Q1009

TAF TAF LGSM
Valide du 19 à 15h jusqu'au 20 à 00h UTC


191400Z 1915/1924 36010KT 9999 FEW020
Pas de NOTAMs connus pour ce terrain.
3 SIGMETs publiés pour la FIR Athinai (LGGG) :
 
Orages noyés dans la masse
LGGG SIGMET 6 VALID 191550/191750 LGAT
LGGG ATHINAI FIR/UIR EMBD TS OBS N OF N3730 AND W OF E02450 AND E OF E02040 LAN STNR NC=
Annulation du SIGMET 4 
LGGG SIGMET 5 VALID 191549/191749 LGAT
LGGG ATHINAI FIR/UIR CNL SIGMET 4 191548/191748=
SIGMET 4  ANNULÉ :
Orages noyés dans la masse
LGGG SIGMET 4 VALID 191548/191748 LGAT
LGGG ATHINAI FIR/UIR EMBD TS OBS N OF N3730 AND W OF E02450 AND E OF E02140 LAN STNR NC=



MET'MAP, la Météo Aéronautique d'un coup d'oeil ! - Copyright ORBIFLY Décembre 2007 - Disclaimer

ORBIFLY MET'MAP TEAM :

Programmation & Développement : Alexandra Zaïnal
Conception & Développement : Baudouin d'Aumeries
Co-Programmation & Développement : Marc-Olivier Méhu
Soutien technique & logistique : Manuel Goepfert

Contact : metmap@orbifly.com




SOURCES & CREDITS :

   NOAA